createdAt,value
2022-10-29T00:00:52.350Z,11.25
2022-10-29T00:03:19.618Z,11.71
2022-10-29T00:05:58.653Z,11.97
2022-10-29T00:08:26.212Z,11.96
2022-10-29T00:10:52.872Z,12.13
2022-10-29T00:13:19.893Z,12.26
2022-10-29T00:15:46.477Z,11.86
2022-10-29T00:18:13.110Z,11.66
2022-10-29T00:20:39.721Z,11.87
2022-10-29T00:23:06.323Z,11.73
2022-10-29T00:25:32.917Z,11.54
2022-10-29T00:27:59.552Z,11.17
2022-10-29T00:30:26.209Z,11.54
2022-10-29T00:32:53.051Z,11.57
2022-10-29T00:35:19.819Z,11.56
2022-10-29T00:37:46.433Z,11.92
2022-10-29T00:40:13.255Z,12.18
2022-10-29T00:42:39.875Z,12.20
2022-10-29T00:45:06.779Z,12.46
2022-10-29T00:47:37.100Z,11.67
2022-10-29T00:50:10.227Z,11.45
2022-10-29T00:52:42.878Z,11.13
2022-10-29T00:55:14.358Z,12.01
2022-10-29T00:57:47.158Z,11.88
2022-10-29T01:00:15.385Z,11.96
2022-10-29T01:02:43.813Z,11.89
2022-10-29T01:05:13.731Z,12.14
2022-10-29T01:07:40.336Z,12.53
2022-10-29T01:10:07.727Z,12.63
2022-10-29T01:13:02.095Z,12.56
2022-10-29T01:16:04.139Z,12.52
2022-10-29T01:19:11.237Z,11.87
2022-10-29T01:21:44.730Z,12.02
2022-10-29T01:24:49.216Z,12.41
2022-10-29T01:27:43.890Z,12.29
2022-10-29T01:30:22.237Z,11.81
2022-10-29T01:33:06.711Z,12.22
2022-10-29T01:35:53.586Z,11.99
2022-10-29T01:38:52.121Z,11.76
2022-10-29T01:41:23.787Z,11.73
2022-10-29T01:43:57.303Z,12.16
2022-10-29T01:46:36.176Z,12.02
2022-10-29T01:49:07.784Z,12.39
2022-10-29T01:51:36.927Z,11.98
2022-10-29T01:54:08.959Z,12.08
2022-10-29T01:56:35.737Z,12.16
2022-10-29T01:59:07.160Z,11.37
2022-10-29T02:01:52.674Z,11.33
2022-10-29T02:04:19.243Z,11.56
2022-10-29T02:07:02.581Z,11.81
2022-10-29T02:09:48.002Z,11.86
2022-10-29T02:12:27.619Z,11.81
2022-10-29T02:15:04.600Z,11.83
2022-10-29T02:17:33.640Z,12.14
2022-10-29T02:20:05.831Z,11.80
2022-10-29T02:22:32.812Z,12.12
2022-10-29T02:24:59.596Z,11.71
2022-10-29T02:27:26.213Z,11.44
2022-10-29T02:29:52.801Z,11.56
2022-10-29T02:32:19.379Z,11.33
2022-10-29T02:34:45.995Z,11.36
2022-10-29T02:37:12.595Z,11.03
2022-10-29T02:39:39.197Z,10.34
2022-10-29T02:42:05.998Z,10.62
2022-10-29T02:44:32.570Z,11.09
2022-10-29T02:46:59.134Z,10.60
2022-10-29T02:49:25.769Z,10.94
2022-10-29T02:51:52.347Z,11.35
2022-10-29T02:54:19.012Z,10.95
2022-10-29T02:56:45.686Z,11.35
2022-10-29T02:59:12.285Z,11.16
2022-10-29T03:01:38.959Z,11.76
2022-10-29T03:04:05.751Z,11.47
2022-10-29T03:06:32.358Z,11.43
2022-10-29T03:08:59.008Z,11.77
2022-10-29T03:11:25.608Z,11.27
2022-10-29T03:13:52.191Z,11.61
2022-10-29T03:16:18.846Z,11.87
2022-10-29T03:18:45.425Z,11.85
2022-10-29T03:21:12.021Z,12.11
2022-10-29T03:23:38.613Z,11.66
2022-10-29T03:26:05.336Z,11.60
2022-10-29T03:28:32.101Z,11.71
2022-10-29T03:30:59.112Z,11.77
2022-10-29T03:33:26.325Z,11.50
2022-10-29T03:36:00.519Z,11.82
2022-10-29T03:38:27.888Z,11.73
2022-10-29T03:40:54.843Z,11.42
2022-10-29T03:43:21.946Z,11.92
2022-10-29T03:45:56.409Z,12.17
2022-10-29T03:48:24.751Z,12.27
2022-10-29T03:51:10.583Z,11.95
2022-10-29T03:53:37.620Z,11.97
2022-10-29T03:56:04.847Z,11.98
2022-10-29T03:58:31.443Z,11.99
2022-10-29T04:01:01.918Z,12.58
2022-10-29T04:03:30.580Z,12.35
2022-10-29T04:05:58.497Z,11.80
2022-10-29T04:08:25.661Z,11.61
2022-10-29T04:10:52.731Z,11.65
2022-10-29T04:13:19.983Z,12.24
2022-10-29T04:15:46.592Z,11.88
2022-10-29T04:18:13.681Z,11.38
2022-10-29T04:21:22.477Z,11.63
2022-10-29T04:29:03.367Z,12.36
2022-10-29T04:31:29.948Z,11.75
2022-10-29T04:33:56.532Z,11.54
2022-10-29T04:36:23.198Z,11.24
2022-10-29T04:38:50.391Z,11.43
2022-10-29T04:41:17.021Z,11.47
2022-10-29T04:43:43.655Z,10.61
2022-10-29T04:46:11.094Z,10.42
2022-10-29T04:48:37.771Z,10.35
2022-10-29T04:51:04.638Z,10.56
2022-10-29T04:53:31.270Z,10.75
2022-10-29T04:56:02.120Z,11.01
2022-10-29T04:58:28.924Z,11.47
2022-10-29T05:01:02.418Z,11.65
2022-10-29T05:03:29.096Z,11.34
2022-10-29T05:05:55.681Z,11.20
2022-10-29T05:08:22.346Z,11.63
2022-10-29T05:10:49.014Z,11.67
2022-10-29T05:13:15.639Z,11.54
2022-10-29T05:15:42.211Z,11.41
2022-10-29T05:18:10.050Z,11.23
2022-10-29T05:20:36.711Z,11.37
2022-10-29T05:23:05.080Z,11.31
2022-10-29T05:25:33.413Z,11.16
2022-10-29T05:28:08.061Z,10.47
2022-10-29T05:30:34.984Z,10.52
2022-10-29T05:33:01.615Z,10.37
2022-10-29T05:35:28.273Z,10.45
2022-10-29T05:37:56.116Z,10.28
2022-10-29T05:40:24.321Z,10.35
2022-10-29T05:42:50.892Z,10.56
2022-10-29T05:45:18.024Z,10.93
2022-10-29T05:47:44.649Z,11.11
2022-10-29T05:50:12.055Z,11.20
2022-10-29T05:52:39.545Z,11.45
2022-10-29T05:55:06.925Z,11.44
2022-10-29T05:57:33.665Z,11.50
2022-10-29T06:00:00.229Z,11.21
2022-10-29T06:02:26.952Z,11.45
2022-10-29T06:04:53.687Z,10.99
2022-10-29T06:07:20.277Z,11.21
2022-10-29T06:09:46.869Z,11.17
2022-10-29T06:12:13.516Z,10.82
2022-10-29T06:14:40.103Z,11.14
2022-10-29T06:17:06.694Z,11.37
2022-10-29T06:19:33.393Z,11.34
2022-10-29T06:22:00.635Z,11.06
2022-10-29T06:24:27.717Z,11.20
2022-10-29T06:26:54.319Z,11.09
2022-10-29T06:29:20.900Z,11.07
2022-10-29T06:31:47.597Z,10.88
2022-10-29T06:34:14.233Z,11.02
2022-10-29T06:36:40.866Z,10.90
2022-10-29T06:39:07.514Z,10.36
2022-10-29T06:41:34.119Z,10.82
2022-10-29T06:44:00.702Z,11.25
2022-10-29T06:46:27.353Z,11.20
2022-10-29T06:48:54.001Z,10.76
2022-10-29T06:51:20.587Z,10.87
2022-10-29T06:53:47.280Z,11.13
2022-10-29T06:56:13.858Z,11.14
2022-10-29T06:58:40.437Z,11.15
2022-10-29T07:01:07.077Z,11.25
2022-10-29T07:03:33.649Z,11.04
2022-10-29T07:06:00.256Z,11.19
2022-10-29T07:08:26.993Z,11.17
2022-10-29T07:10:54.395Z,11.12
2022-10-29T07:13:21.030Z,10.93
2022-10-29T07:15:47.736Z,10.76
2022-10-29T07:18:14.466Z,10.41
2022-10-29T07:20:43.075Z,10.33
2022-10-29T07:23:10.889Z,10.38
2022-10-29T07:25:38.922Z,10.46
2022-10-29T07:28:08.257Z,10.37
2022-10-29T07:30:35.159Z,10.24
2022-10-29T07:33:01.805Z,10.22
2022-10-29T07:35:29.051Z,10.31
2022-10-29T07:38:03.835Z,10.33
2022-10-29T07:40:35.827Z,10.13
2022-10-29T07:43:02.458Z,10.55
2022-10-29T07:45:29.051Z,10.94
2022-10-29T07:48:02.815Z,11.09
2022-10-29T07:50:31.248Z,11.28
2022-10-29T07:53:02.068Z,11.31
2022-10-29T07:58:03.636Z,10.65
2022-10-29T08:00:32.184Z,10.64
2022-10-29T08:02:58.906Z,10.79
2022-10-29T08:05:27.662Z,10.46
2022-10-29T08:07:54.896Z,10.96
2022-10-29T08:10:23.267Z,10.96
2022-10-29T08:12:50.461Z,10.30
2022-10-29T08:15:17.982Z,10.84
2022-10-29T08:17:44.638Z,11.00
2022-10-29T08:20:11.583Z,10.91
2022-10-29T08:22:38.197Z,11.15
2022-10-29T08:25:05.627Z,11.05
2022-10-29T08:27:32.278Z,11.32
2022-10-29T08:29:58.892Z,11.31
2022-10-29T08:32:25.541Z,10.78
2022-10-29T08:34:52.123Z,10.34
2022-10-29T08:37:18.733Z,10.11
2022-10-29T08:39:45.309Z,10.38
2022-10-29T08:42:30.592Z,10.26
2022-10-29T08:45:15.637Z,10.16
2022-10-29T08:48:16.113Z,10.06
2022-10-29T08:50:51.804Z,10.06
2022-10-29T08:53:23.887Z,10.05
2022-10-29T08:55:51.790Z,10.02
2022-10-29T08:58:35.720Z,10.02
2022-10-29T09:01:02.481Z,10.01
2022-10-29T09:03:29.361Z,9.86
2022-10-29T09:06:31.989Z,10.24
2022-10-29T09:09:30.886Z,10.05
2022-10-29T09:12:03.352Z,10.30
2022-10-29T09:14:57.545Z,10.56
2022-10-29T09:17:44.333Z,10.16
2022-10-29T09:20:29.812Z,10.44
2022-10-29T09:23:01.162Z,10.67
2022-10-29T09:25:35.361Z,10.58
2022-10-29T09:28:11.021Z,10.57
2022-10-29T09:30:51.058Z,11.03
2022-10-29T09:33:21.253Z,10.80
2022-10-29T09:35:53.683Z,10.81
2022-10-29T09:39:02.706Z,10.82
2022-10-29T09:41:33.946Z,10.31
2022-10-29T09:44:15.127Z,10.13
2022-10-29T09:46:50.165Z,10.12
2022-10-29T09:49:38.116Z,10.20
2022-10-29T09:52:19.186Z,10.05
2022-10-29T09:54:48.506Z,9.91
2022-10-29T09:57:28.171Z,10.42
2022-10-29T10:00:00.990Z,10.89
2022-10-29T10:02:39.644Z,11.05
2022-10-29T10:05:12.404Z,10.99
2022-10-29T10:07:40.042Z,10.82
2022-10-29T10:10:23.869Z,10.63
2022-10-29T10:12:51.176Z,11.13
2022-10-29T10:15:28.921Z,11.17
2022-10-29T10:18:25.556Z,11.30
2022-10-29T10:21:04.086Z,10.92
2022-10-29T10:23:41.850Z,10.88
2022-10-29T10:26:30.085Z,10.57
2022-10-29T10:29:16.894Z,11.04
2022-10-29T10:31:45.708Z,10.99
2022-10-29T10:34:18.650Z,10.40
2022-10-29T10:37:02.535Z,10.46
2022-10-29T10:39:41.374Z,10.84
2022-10-29T10:42:22.205Z,10.56
2022-10-29T10:45:13.962Z,11.19
2022-10-29T10:47:51.640Z,10.73
2022-10-29T10:50:28.592Z,10.50
2022-10-29T10:52:59.322Z,10.42
2022-10-29T10:55:32.736Z,10.93
2022-10-29T10:58:02.327Z,10.96
2022-10-29T11:00:37.806Z,10.67
2022-10-29T11:03:34.015Z,11.04
2022-10-29T11:06:08.357Z,11.62
2022-10-29T11:08:45.739Z,11.58
2022-10-29T11:11:31.590Z,11.85
2022-10-29T11:14:03.445Z,11.42
2022-10-29T11:16:39.858Z,11.34
2022-10-29T11:19:31.301Z,11.58
2022-10-29T11:22:12.915Z,11.58
2022-10-29T11:24:57.855Z,11.44
2022-10-29T11:28:01.768Z,11.76
2022-10-29T11:30:34.292Z,10.83
2022-10-29T11:33:24.502Z,11.10
2022-10-29T11:36:17.419Z,10.94
2022-10-29T11:39:09.591Z,10.98
2022-10-29T11:41:44.965Z,10.64
2022-10-29T11:44:14.483Z,11.25
2022-10-29T11:47:00.909Z,11.36
2022-10-29T11:50:09.484Z,11.11
2022-10-29T11:53:13.161Z,11.42
2022-10-29T11:56:16.466Z,11.81
2022-10-29T11:58:52.373Z,11.73
2022-10-29T12:01:20.881Z,11.23
2022-10-29T12:04:24.644Z,11.06
2022-10-29T12:07:19.001Z,10.68
2022-10-29T12:10:13.049Z,11.09
2022-10-29T12:12:45.464Z,11.11
2022-10-29T12:15:18.032Z,10.99
2022-10-29T12:18:07.359Z,10.92
2022-10-29T12:20:38.566Z,11.03
2022-10-29T12:23:16.593Z,10.97
2022-10-29T12:26:03.866Z,11.25
2022-10-29T12:29:41.531Z,11.60
2022-10-29T12:32:25.774Z,11.93
2022-10-29T12:35:16.433Z,12.21
2022-10-29T12:38:01.062Z,11.66
2022-10-29T12:40:34.655Z,11.79
2022-10-29T12:43:06.739Z,11.13
2022-10-29T12:46:14.393Z,11.52
2022-10-29T12:48:59.991Z,11.38
2022-10-29T12:51:44.085Z,11.65
2022-10-29T12:54:20.003Z,11.86
2022-10-29T12:56:49.469Z,11.90
2022-10-29T12:59:36.489Z,11.26
2022-10-29T13:02:29.347Z,11.31
2022-10-29T13:05:08.304Z,11.48
2022-10-29T13:07:37.192Z,11.28
2022-10-29T13:10:22.225Z,11.53
2022-10-29T13:13:20.629Z,11.87
2022-10-29T13:16:02.907Z,11.94
2022-10-29T13:18:59.625Z,11.33
2022-10-29T13:22:17.288Z,11.70
2022-10-29T13:24:44.347Z,10.81
2022-10-29T13:27:17.047Z,10.88
2022-10-29T13:29:44.798Z,10.96
2022-10-29T13:32:31.095Z,10.72
2022-10-29T13:35:00.140Z,10.91
2022-10-29T13:37:56.449Z,10.92
2022-10-29T13:40:22.992Z,10.92
2022-10-29T13:43:07.800Z,11.16
2022-10-29T13:45:40.402Z,11.29
2022-10-29T13:48:36.281Z,11.57
2022-10-29T13:51:15.352Z,11.59
2022-10-29T13:53:53.130Z,11.62
2022-10-29T13:56:30.737Z,11.43
2022-10-29T13:59:00.684Z,10.91
2022-10-29T14:01:29.148Z,11.16
2022-10-29T14:04:04.038Z,10.98
2022-10-29T14:06:37.988Z,10.71
2022-10-29T14:09:23.328Z,10.90
2022-10-29T14:12:00.416Z,10.87
2022-10-29T14:14:36.709Z,11.13
2022-10-29T14:17:15.008Z,11.57
2022-10-29T14:19:49.818Z,11.44
2022-10-29T14:22:22.348Z,10.63
2022-10-29T14:24:48.933Z,10.64
2022-10-29T14:27:15.719Z,10.57
2022-10-29T14:29:42.561Z,10.91
2022-10-29T14:32:15.310Z,11.12
2022-10-29T14:34:42.693Z,10.87
2022-10-29T14:37:36.182Z,11.60
2022-10-29T14:40:16.428Z,12.22
2022-10-29T14:42:46.549Z,12.00
2022-10-29T14:45:27.838Z,11.96
2022-10-29T14:47:59.059Z,11.17
2022-10-29T14:50:28.160Z,11.16
2022-10-29T14:52:58.269Z,11.27
2022-10-29T14:55:34.020Z,11.11
2022-10-29T14:58:17.034Z,11.23
2022-10-29T15:01:15.689Z,11.86
2022-10-29T15:03:42.724Z,11.84
2022-10-29T15:06:15.035Z,12.44
2022-10-29T15:08:44.095Z,11.86
2022-10-29T15:11:36.611Z,11.33
2022-10-29T15:14:05.763Z,10.80
2022-10-29T15:16:36.724Z,11.04
2022-10-29T15:19:14.242Z,10.61
2022-10-29T15:21:40.875Z,10.50
2022-10-29T15:24:20.363Z,10.65
2022-10-29T15:26:54.839Z,10.68
2022-10-29T15:29:32.223Z,10.93
2022-10-29T15:32:00.869Z,11.13
2022-10-29T15:34:35.456Z,11.29
2022-10-29T15:37:33.455Z,11.99
2022-10-29T15:40:06.769Z,12.48
2022-10-29T15:42:35.545Z,11.52
2022-10-29T15:45:08.696Z,11.39
2022-10-29T15:47:37.395Z,11.39
2022-10-29T15:50:05.567Z,11.25
2022-10-29T15:52:36.999Z,11.50
2022-10-29T15:55:11.244Z,11.27
2022-10-29T15:57:37.839Z,11.54
2022-10-29T16:00:06.977Z,11.66
2022-10-29T16:02:33.636Z,12.33
2022-10-29T16:05:00.272Z,12.01
2022-10-29T16:07:27.067Z,11.65
2022-10-29T16:09:57.103Z,11.21
2022-10-29T16:12:24.198Z,11.13
2022-10-29T16:14:50.776Z,11.45
2022-10-29T16:17:19.506Z,11.16
2022-10-29T16:19:46.107Z,10.80
2022-10-29T16:22:28.849Z,10.63
2022-10-29T16:24:55.780Z,10.76
2022-10-29T16:27:22.683Z,11.07
2022-10-29T16:29:49.289Z,11.53
2022-10-29T16:32:19.011Z,11.45
2022-10-29T16:34:45.611Z,11.79
2022-10-29T16:37:14.969Z,11.91
2022-10-29T16:39:42.270Z,11.78
2022-10-29T16:42:33.476Z,11.96
2022-10-29T16:45:00.096Z,12.47
2022-10-29T16:47:26.788Z,11.92
2022-10-29T16:49:54.130Z,12.19
2022-10-29T16:52:24.096Z,11.93
2022-10-29T16:54:53.484Z,11.55
2022-10-29T16:57:20.093Z,11.89
2022-10-29T16:59:46.754Z,11.65
2022-10-29T17:02:13.331Z,11.02
2022-10-29T17:04:39.987Z,11.37
2022-10-29T17:07:06.681Z,11.08
2022-10-29T17:09:33.248Z,11.20
2022-10-29T17:11:59.828Z,10.55
2022-10-29T17:14:26.514Z,11.05
2022-10-29T17:16:53.136Z,11.32
2022-10-29T17:19:19.716Z,11.66
2022-10-29T17:21:46.325Z,11.69
2022-10-29T17:24:12.923Z,11.69
2022-10-29T17:26:39.552Z,11.85
2022-10-29T17:29:06.153Z,11.46
2022-10-29T17:31:32.736Z,11.40
2022-10-29T17:33:59.342Z,11.27
2022-10-29T17:36:26.255Z,11.38
2022-10-29T17:38:52.876Z,11.06
2022-10-29T17:41:19.482Z,10.83
2022-10-29T17:43:46.078Z,11.40
2022-10-29T17:46:12.699Z,11.70
2022-10-29T17:48:39.314Z,11.98
2022-10-29T17:51:06.110Z,11.68
2022-10-29T17:53:32.691Z,11.59
2022-10-29T17:56:00.512Z,12.31
2022-10-29T17:58:27.727Z,11.87
2022-10-29T18:00:54.643Z,11.70
2022-10-29T18:03:25.218Z,11.26
2022-10-29T18:05:51.787Z,11.02
2022-10-29T18:08:18.421Z,10.77
2022-10-29T18:10:44.988Z,10.59
2022-10-29T18:13:11.574Z,10.70
2022-10-29T18:15:39.241Z,11.22
2022-10-29T18:18:05.888Z,10.85
2022-10-29T18:20:32.482Z,10.76
2022-10-29T18:22:59.267Z,11.69
2022-10-29T18:25:26.140Z,11.35
2022-10-29T18:27:52.768Z,11.23
2022-10-29T18:30:19.360Z,11.09
2022-10-29T18:32:45.979Z,10.99
2022-10-29T18:35:12.619Z,10.83
2022-10-29T18:37:39.215Z,11.25
2022-10-29T18:40:06.363Z,11.23
2022-10-29T18:42:32.932Z,11.62
2022-10-29T18:44:59.523Z,11.40
2022-10-29T18:47:26.125Z,11.40
2022-10-29T18:49:52.698Z,11.37
2022-10-29T18:52:19.343Z,11.03
2022-10-29T18:54:46.141Z,11.00
2022-10-29T18:57:16.777Z,11.20
2022-10-29T18:59:45.903Z,10.70
2022-10-29T19:02:12.642Z,10.44
2022-10-29T19:04:42.215Z,10.49
2022-10-29T19:07:08.798Z,10.44
2022-10-29T19:09:35.391Z,10.57
2022-10-29T19:12:02.011Z,10.34
2022-10-29T19:14:28.591Z,10.43
2022-10-29T19:16:55.176Z,10.65
2022-10-29T19:19:24.140Z,11.48
2022-10-29T19:21:50.913Z,11.48
2022-10-29T19:24:17.579Z,12.07
2022-10-29T19:26:44.370Z,11.94
2022-10-29T19:29:11.686Z,12.31
2022-10-29T19:31:38.513Z,12.39
2022-10-29T19:34:07.102Z,12.22
2022-10-29T19:36:35.419Z,12.22
2022-10-29T19:39:04.173Z,12.36
2022-10-29T19:41:31.018Z,12.47
2022-10-29T19:44:01.915Z,12.11
2022-10-29T19:46:29.112Z,11.79
2022-10-29T19:48:56.636Z,11.66
2022-10-29T19:51:23.488Z,12.36
2022-10-29T19:53:50.834Z,12.55
2022-10-29T19:56:18.763Z,12.29
2022-10-29T19:58:45.370Z,12.01
2022-10-29T20:01:14.344Z,11.58
2022-10-29T20:03:41.132Z,11.54
2022-10-29T20:06:08.677Z,11.85
2022-10-29T20:08:36.923Z,12.34
2022-10-29T20:11:03.637Z,12.39
2022-10-29T20:13:30.238Z,12.43
2022-10-29T20:15:56.957Z,12.04
2022-10-29T20:18:24.533Z,12.34
2022-10-29T20:20:55.404Z,12.39
2022-10-29T20:23:22.830Z,12.37
2022-10-29T20:25:49.869Z,12.40
2022-10-29T20:28:16.456Z,12.55
2022-10-29T20:30:43.061Z,12.23
2022-10-29T20:33:09.699Z,12.17
2022-10-29T20:35:36.355Z,11.80
2022-10-29T20:38:03.066Z,11.85
2022-10-29T20:40:29.658Z,11.92
2022-10-29T20:42:56.306Z,12.24
2022-10-29T20:45:23.015Z,11.99
2022-10-29T20:47:49.598Z,11.89
2022-10-29T20:50:16.299Z,11.79
2022-10-29T20:52:48.122Z,11.78
2022-10-29T20:55:15.360Z,11.79
2022-10-29T20:57:41.965Z,11.93
2022-10-29T21:00:09.251Z,12.06
2022-10-29T21:02:35.941Z,12.23
2022-10-29T21:05:02.806Z,11.97
2022-10-29T21:07:29.371Z,11.84
2022-10-29T21:09:55.958Z,11.86
2022-10-29T21:12:22.529Z,12.52
2022-10-29T21:14:49.146Z,12.17
2022-10-29T21:17:15.750Z,12.31
2022-10-29T21:19:42.348Z,12.52
2022-10-29T21:22:09.100Z,12.99
2022-10-29T21:24:36.065Z,12.53
2022-10-29T21:27:03.077Z,12.36
2022-10-29T21:29:29.660Z,12.28
2022-10-29T21:31:56.291Z,11.89
2022-10-29T21:34:22.962Z,11.59
2022-10-29T21:36:49.538Z,11.05
2022-10-29T21:39:16.180Z,11.30
2022-10-29T21:41:42.900Z,11.39
2022-10-29T21:44:09.516Z,11.38
2022-10-29T21:46:36.095Z,11.39
2022-10-29T21:49:02.693Z,10.86
2022-10-29T21:51:29.333Z,10.44
2022-10-29T21:53:55.911Z,10.58
2022-10-29T21:56:22.551Z,10.68
2022-10-29T21:58:51.196Z,10.80
2022-10-29T22:01:18.403Z,10.87
2022-10-29T22:03:46.808Z,11.09
2022-10-29T22:06:16.361Z,11.14
2022-10-29T22:08:44.131Z,10.92
2022-10-29T22:11:12.138Z,11.43
2022-10-29T22:13:38.952Z,11.38
2022-10-29T22:16:07.983Z,11.87
2022-10-29T22:18:35.109Z,11.50
2022-10-29T22:21:14.105Z,11.40
2022-10-29T22:23:52.220Z,12.12
2022-10-29T22:26:24.722Z,12.40
2022-10-29T22:28:51.305Z,11.88
2022-10-29T22:31:19.603Z,11.95
2022-10-29T22:33:46.909Z,11.93
2022-10-29T22:36:21.528Z,12.02
2022-10-29T22:38:52.983Z,11.76
2022-10-29T22:41:19.655Z,10.99
2022-10-29T22:43:46.346Z,10.86
2022-10-29T22:46:14.481Z,10.89
2022-10-29T22:48:41.548Z,11.31
2022-10-29T22:51:14.760Z,11.65
2022-10-29T22:53:41.759Z,11.09
2022-10-29T22:56:16.481Z,11.39
2022-10-29T22:58:43.590Z,11.99
2022-10-29T23:01:13.257Z,11.95
2022-10-29T23:03:41.517Z,11.63
2022-10-29T23:06:10.477Z,11.77
2022-10-29T23:08:37.326Z,11.73
2022-10-29T23:11:06.345Z,11.04
2022-10-29T23:13:33.359Z,11.31
2022-10-29T23:16:00.308Z,11.83
2022-10-29T23:18:26.911Z,11.47
2022-10-29T23:21:04.097Z,11.20
2022-10-29T23:23:31.771Z,11.22
2022-10-29T23:25:59.285Z,10.94
2022-10-29T23:28:26.143Z,11.35
2022-10-29T23:30:54.199Z,11.03
2022-10-29T23:33:21.101Z,10.66
2022-10-29T23:35:47.792Z,11.21
2022-10-29T23:38:14.664Z,10.68
2022-10-29T23:40:46.065Z,10.97
2022-10-29T23:43:13.538Z,10.72
2022-10-29T23:45:41.483Z,10.85
2022-10-29T23:48:11.228Z,11.14
2022-10-29T23:50:38.555Z,11.16
2022-10-29T23:53:05.149Z,11.51
2022-10-29T23:55:31.743Z,11.64
2022-10-29T23:57:58.376Z,11.65
